Time;durP1;ratioP1;P1;durP2;ratioP2;P2;SDS_P1;SDS_P2;PMS_P1;PMS_P2;Temp;Humidity;BMP_temperature;BMP_pressure;BME280_temperature;BME280_humidity;BME280_pressure;Samples;Min_cycle;Max_cycle;Signal;HPM_P1;HPM_P2
2023/12/23 00:01:36;;;;;;;0.75;0.75;;;;;;;3.29;71.91;98077.16;4436614;32;20176;-80
2023/12/23 00:04:05;;;;;;;0.93;0.93;;;;;;;3.14;72.22;98076.44;4436546;32;20199;-80
2023/12/23 00:06:34;;;;;;;0.80;0.80;;;;;;;3.16;72.47;98090.22;4436757;32;20207;-80
2023/12/23 00:09:04;;;;;;;0.80;0.73;;;;;;;3.42;71.32;98098.94;4436515;32;20156;-80
2023/12/23 00:11:33;;;;;;;0.80;0.80;;;;;;;3.58;70.73;98104.78;4436860;32;20152;-80
2023/12/23 00:14:02;;;;;;;0.80;0.80;;;;;;;3.16;72.23;98093.69;4436811;32;20166;-80
2023/12/23 00:16:32;;;;;;;0.80;0.80;;;;;;;3.52;71.30;98093.88;4451616;32;20149;-80
2023/12/23 00:19:03;;;;;;;0.77;0.77;;;;;;;3.48;70.96;98095.87;4452376;32;20175;-80
2023/12/23 00:21:33;;;;;;;0.70;0.70;;;;;;;3.44;71.31;98078.69;4452060;32;20156;-80
2023/12/23 00:24:02;;;;;;;0.90;0.90;;;;;;;3.77;70.18;98054.56;4452242;32;20152;-80
2023/12/23 00:26:31;;;;;;;0.70;0.70;;;;;;;3.54;70.91;98057.97;4454029;32;20172;-80
2023/12/23 00:29:01;;;;;;;0.98;0.98;;;;;;;3.51;70.86;98061.62;4453536;32;20183;-80
2023/12/23 00:31:32;;;;;;;1.23;0.80;;;;;;;3.50;71.00;98091.38;4453582;32;20168;-80
2023/12/23 00:34:03;;;;;;;0.85;0.85;;;;;;;3.57;70.62;98065.63;4453508;32;20143;-80
2023/12/23 00:36:33;;;;;;;2.65;1.48;;;;;;;3.41;71.22;98058.84;4453735;32;20151;-80
2023/12/23 00:39:04;;;;;;;2.83;1.90;;;;;;;3.38;71.44;98052.97;4453443;32;20171;-80
2023/12/23 00:41:33;;;;;;;1.48;1.30;;;;;;;3.46;71.11;98034.94;4453600;32;20163;-80
2023/12/23 00:44:02;;;;;;;1.52;1.23;;;;;;;3.43;71.15;98024.69;4453625;32;20171;-80
2023/12/23 00:46:34;;;;;;;1.98;1.50;;;;;;;3.33;71.48;98021.03;4453488;32;20478;-80
2023/12/23 00:49:03;;;;;;;1.67;1.23;;;;;;;3.56;70.85;98042.97;4453447;32;20152;-80
2023/12/23 00:51:32;;;;;;;1.10;1.10;;;;;;;3.75;70.32;98059.06;4453639;32;20155;-80
2023/12/23 00:54:01;;;;;;;0.80;0.80;;;;;;;3.58;70.33;98047.16;4453666;32;20156;-80
2023/12/23 00:56:31;;;;;;;0.65;0.65;;;;;;;3.45;70.79;98049.81;4454010;32;20420;-80
2023/12/23 00:59:00;;;;;;;0.68;0.68;;;;;;;3.69;70.14;98052.50;4453560;32;20159;-80
2023/12/23 01:01:29;;;;;;;0.68;0.68;;;;;;;3.86;69.32;98051.28;4453384;32;20164;-80
2023/12/23 01:04:00;;;;;;;1.08;0.77;;;;;;;3.78;69.97;98050.16;4453531;32;20178;-80
2023/12/23 01:06:29;;;;;;;0.75;0.75;;;;;;;3.86;69.46;98032.94;4453564;32;20164;-80
2023/12/23 01:08:58;;;;;;;0.60;0.60;;;;;;;4.13;68.61;98055.50;4453876;32;20164;-80
2023/12/23 01:11:27;;;;;;;0.57;0.57;;;;;;;4.08;68.76;98084.66;4453876;32;20198;-80
2023/12/23 01:13:57;;;;;;;0.82;0.82;;;;;;;4.13;68.78;98100.91;4453480;32;20203;-81
2023/12/23 01:16:29;;;;;;;1.02;0.93;;;;;;;4.16;68.34;98111.16;4453500;32;20168;-80
2023/12/23 01:19:01;;;;;;;0.85;0.70;;;;;;;4.21;67.92;98110.00;4447865;32;20148;-81
2023/12/23 01:21:30;;;;;;;1.20;0.90;;;;;;;3.78;69.28;98120.91;4453460;32;20167;-80
2023/12/23 01:23:59;;;;;;;0.80;0.80;;;;;;;3.62;69.98;98108.03;4453296;32;20188;-80
2023/12/23 01:26:28;;;;;;;0.93;0.93;;;;;;;3.91;69.14;98111.22;4453907;32;20167;-80
2023/12/23 01:29:00;;;;;;;1.98;0.80;;;;;;;3.85;69.36;98120.34;4453114;32;20191;-81
2023/12/23 01:31:34;;;;;;;0.80;0.80;;;;;;;3.73;69.78;98131.69;4453223;32;20179;-80
2023/12/23 01:34:05;;;;;;;1.25;0.95;;;;;;;3.69;69.86;98117.13;4453114;32;20156;-81
2023/12/23 01:36:34;;;;;;;0.65;0.65;;;;;;;3.67;70.18;98129.50;4452468;32;20152;-80
2023/12/23 01:39:04;;;;;;;0.60;0.60;;;;;;;3.32;70.89;98116.19;4453404;32;20136;-80
2023/12/23 01:41:33;;;;;;;0.70;0.70;;;;;;;3.77;69.93;98119.22;4453349;32;20444;-80
2023/12/23 01:44:02;;;;;;;0.70;0.70;;;;;;;3.78;69.92;98129.59;4452803;32;20179;-80
2023/12/23 01:46:35;;;;;;;0.95;0.90;;;;;;;3.69;70.04;98141.53;4452750;32;20160;-80
2023/12/23 01:49:06;;;;;;;0.80;0.80;;;;;;;3.78;69.66;98147.94;4438677;32;20472;-81
2023/12/23 01:51:36;;;;;;;0.70;0.70;;;;;;;3.30;70.94;98115.47;4453236;32;20155;-80
2023/12/23 01:54:07;;;;;;;0.80;0.80;;;;;;;3.37;70.85;98108.91;4453165;32;20176;-80
2023/12/23 01:56:37;;;;;;;0.80;0.70;;;;;;;3.31;71.45;98106.69;4453652;32;20537;-80
2023/12/23 01:59:06;;;;;;;0.73;0.70;;;;;;;2.98;72.13;98089.72;4453440;32;20151;-80
2023/12/23 02:01:44;;;;;;;0.60;0.60;;;;;;;3.32;71.71;98101.31;4453031;32;20147;-80
2023/12/23 02:04:15;;;;;;;1.40;0.52;;;;;;;2.95;72.89;98116.06;4453132;32;20164;-80
2023/12/23 02:06:44;;;;;;;0.60;0.60;;;;;;;3.03;72.82;98118.19;4453116;32;20161;-80
2023/12/23 02:09:13;;;;;;;0.70;0.70;;;;;;;3.22;72.32;98123.03;4453202;32;20183;-80
2023/12/23 02:12:03;;;;;;;0.68;0.68;;;;;;;2.76;73.73;98139.97;4453662;32;20155;-80
2023/12/23 02:14:41;;;;;;;2.60;0.70;;;;;;;3.04;73.07;98152.06;4453050;32;20168;-80
2023/12/23 02:17:11;;;;;;;0.70;0.70;;;;;;;3.36;71.81;98149.91;4453091;32;20183;-80
2023/12/23 02:19:42;;;;;;;0.75;0.73;;;;;;;3.33;71.77;98170.25;4453052;32;20222;-80
2023/12/23 02:22:12;;;;;;;0.80;0.80;;;;;;;3.51;71.24;98197.78;4452989;32;20183;-80
2023/12/23 02:24:41;;;;;;;0.68;0.68;;;;;;;3.44;71.13;98194.78;4452939;32;20536;-80
2023/12/23 02:27:16;;;;;;;0.80;0.80;;;;;;;2.91;73.05;98193.91;4453042;32;20156;-80
2023/12/23 02:29:47;;;;;;;0.85;0.85;;;;;;;3.13;72.63;98179.44;4453257;32;20516;-80
2023/12/23 02:32:18;;;;;;;0.80;0.80;;;;;;;2.96;72.96;98175.28;4453019;32;20159;-80
2023/12/23 02:34:50;;;;;;;0.70;0.70;;;;;;;2.93;73.24;98194.66;4452794;32;20156;-80
2023/12/23 02:37:20;;;;;;;0.75;0.75;;;;;;;3.21;72.30;98208.56;4453107;32;20183;-80
2023/12/23 02:39:50;;;;;;;0.70;0.70;;;;;;;2.91;73.16;98198.31;4452997;32;20164;-80
2023/12/23 02:42:20;;;;;;;0.70;0.70;;;;;;;2.82;73.95;98198.91;4452837;32;20180;-80
2023/12/23 02:44:51;;;;;;;;;;;;;;;2.56;74.64;98193.56;4453405;32;20175;-80
2023/12/23 02:47:20;;;;;;;0.80;0.80;;;;;;;2.66;74.64;98171.13;4452178;32;20047;-80
2023/12/23 02:49:49;;;;;;;0.88;0.88;;;;;;;2.86;74.04;98176.84;4452662;32;20207;-80
2023/12/23 02:52:26;;;;;;;0.80;0.80;;;;;;;2.73;74.55;98202.94;4452970;32;20183;-80
2023/12/23 02:54:55;;;;;;;0.77;0.77;;;;;;;2.83;74.03;98204.03;4452874;32;20151;-80
2023/12/23 02:57:24;;;;;;;0.82;0.82;;;;;;;2.84;73.93;98213.56;4438785;32;20168;-80
2023/12/23 02:59:53;;;;;;;0.70;0.70;;;;;;;2.67;75.07;98204.19;4452748;32;20145;-80
2023/12/23 03:02:23;;;;;;;0.80;0.80;;;;;;;2.61;75.08;98216.81;4453221;32;20136;-80
2023/12/23 03:04:52;;;;;;;0.70;0.70;;;;;;;2.91;74.03;98217.47;4452990;32;20151;-80
2023/12/23 03:07:22;;;;;;;0.80;0.80;;;;;;;2.55;75.31;98210.19;4452893;32;20171;-80
2023/12/23 03:09:51;;;;;;;0.80;0.80;;;;;;;2.83;74.23;98213.66;4453069;32;20152;-80
2023/12/23 03:12:21;;;;;;;1.02;1.00;;;;;;;2.93;73.90;98226.06;4452872;32;20504;-80
2023/12/23 03:14:50;;;;;;;0.98;0.98;;;;;;;2.79;74.54;98240.97;4452959;32;20168;-80
2023/12/23 03:17:19;;;;;;;1.35;1.05;;;;;;;2.90;74.27;98220.19;4452938;32;20171;-80
2023/12/23 03:19:48;;;;;;;0.90;0.90;;;;;;;3.00;73.56;98221.25;4453133;32;20151;-80
2023/12/23 03:22:18;;;;;;;0.90;0.90;;;;;;;2.79;74.39;98218.25;4452929;32;20548;-80
2023/12/23 03:24:49;;;;;;;0.80;0.80;;;;;;;2.64;75.41;98216.63;4452858;32;20528;-80
2023/12/23 03:27:18;;;;;;;0.90;0.90;;;;;;;2.52;75.52;98241.75;4453159;32;20148;-80
2023/12/23 03:29:48;;;;;;;4.53;2.45;;;;;;;2.89;74.36;98260.34;4453115;32;20164;-80
2023/12/23 03:32:17;;;;;;;1.40;1.20;;;;;;;2.90;74.14;98272.50;4452412;32;20202;-80
2023/12/23 03:34:45;;;;;;;2.10;1.37;;;;;;;2.74;75.04;98298.78;4452789;32;20160;-80
2023/12/23 03:37:15;;;;;;;1.27;1.12;;;;;;;3.01;74.07;98287.50;4452881;32;20160;-80
2023/12/23 03:39:45;;;;;;;1.00;1.00;;;;;;;2.97;73.54;98297.34;4452978;32;20164;-80
2023/12/23 03:42:15;;;;;;;1.35;1.25;;;;;;;3.16;73.36;98304.84;4452624;32;20418;-80
2023/12/23 03:44:44;;;;;;;1.05;0.95;;;;;;;3.20;72.68;98290.59;4453274;32;20829;-80
2023/12/23 03:47:16;;;;;;;0.80;0.80;;;;;;;2.89;73.79;98270.81;4452517;32;20155;-80
2023/12/23 03:49:46;;;;;;;0.80;0.80;;;;;;;2.92;73.94;98260.16;4452739;32;20167;-80
2023/12/23 03:52:15;;;;;;;0.80;0.80;;;;;;;2.53;74.90;98251.28;4452492;32;20152;-80
2023/12/23 03:54:44;;;;;;;0.77;0.77;;;;;;;2.79;74.71;98246.19;4452694;32;20164;-80
2023/12/23 03:57:15;;;;;;;0.88;0.80;;;;;;;2.66;75.15;98239.13;4452742;32;20152;-80
2023/12/23 03:59:45;;;;;;;0.75;0.75;;;;;;;2.62;75.63;98249.88;4452373;32;20168;-80
2023/12/23 04:02:15;;;;;;;1.25;1.20;;;;;;;2.53;75.45;98256.50;4438066;32;20152;-80
2023/12/23 04:04:49;;;;;;;0.88;0.88;;;;;;;2.65;75.29;98242.69;4436711;32;20168;-80
2023/12/23 04:07:18;;;;;;;1.77;0.80;;;;;;;2.63;75.33;98248.94;4436790;32;20163;-80
2023/12/23 04:09:47;;;;;;;0.90;0.90;;;;;;;2.60;75.37;98244.72;4436740;32;20223;-80
2023/12/23 04:12:18;;;;;;;0.95;0.90;;;;;;;2.76;74.80;98239.38;4422604;32;20509;-80
2023/12/23 04:14:48;;;;;;;0.93;0.93;;;;;;;2.82;74.18;98241.59;4437012;32;20442;-80
2023/12/23 04:17:17;;;;;;;1.00;1.00;;;;;;;2.89;73.99;98223.72;4436656;32;20258;-80
2023/12/23 04:19:50;;;;;;;;;;;;;;;2.83;74.47;98221.50;4437114;32;20156;-80
2023/12/23 04:22:19;;;;;;;0.80;0.80;;;;;;;2.85;74.18;98230.94;4436784;32;20431;-80
2023/12/23 04:24:48;;;;;;;0.93;0.93;;;;;;;2.79;74.39;98240.97;4436499;32;20148;-80
2023/12/23 04:27:19;;;;;;;0.70;0.70;;;;;;;3.21;73.32;98245.19;4435825;32;20603;-80
2023/12/23 04:29:51;;;;;;;0.80;0.80;;;;;;;3.27;72.88;98238.72;4435119;32;20485;-80
2023/12/23 04:32:26;;;;;;;0.77;0.77;;;;;;;3.31;72.45;98248.03;4435531;32;20139;-81
2023/12/23 04:34:56;;;;;;;0.80;0.80;;;;;;;2.92;74.11;98245.28;4435062;32;20476;-80
2023/12/23 04:37:26;;;;;;;0.70;0.70;;;;;;;2.65;75.19;98236.59;4435109;32;20179;-80
2023/12/23 04:39:55;;;;;;;0.93;0.90;;;;;;;2.59;75.89;98235.22;4435110;32;20164;-80
2023/12/23 04:42:26;;;;;;;3.75;0.82;;;;;;;2.46;76.36;98231.72;4434911;32;20160;-80
2023/12/23 04:44:55;;;;;;;0.80;0.80;;;;;;;2.65;75.47;98232.22;4434914;32;20165;-80
2023/12/23 04:47:30;;;;;;;0.90;0.90;;;;;;;2.67;75.39;98240.81;4435120;32;20634;-80
2023/12/23 04:49:59;;;;;;;0.93;0.93;;;;;;;2.38;75.83;98242.66;4434913;32;20183;-81
2023/12/23 04:52:29;;;;;;;1.12;0.95;;;;;;;2.62;75.78;98255.94;4434602;32;20184;-79
2023/12/23 04:54:59;;;;;;;1.00;1.00;;;;;;;2.37;76.33;98261.84;4434741;32;20164;-81
2023/12/23 04:57:30;;;;;;;1.10;1.10;;;;;;;2.63;75.56;98268.09;4434762;32;20172;-80
2023/12/23 04:59:59;;;;;;;1.00;1.00;;;;;;;2.69;75.28;98291.25;4434749;32;20459;-80
2023/12/23 05:02:29;;;;;;;1.65;1.45;;;;;;;2.49;75.58;98296.00;4434811;32;20194;-80
2023/12/23 05:04:58;;;;;;;1.73;1.17;;;;;;;2.79;74.83;98303.72;4434713;32;20183;-80
2023/12/23 05:07:28;;;;;;;0.90;0.90;;;;;;;2.62;75.16;98300.41;4434707;32;20451;-80
2023/12/23 05:09:58;;;;;;;1.00;1.00;;;;;;;2.34;76.03;98300.44;4434726;32;20168;-80
2023/12/23 05:12:27;;;;;;;1.00;1.00;;;;;;;2.64;75.47;98308.97;4436614;32;20160;-80
2023/12/23 05:14:58;;;;;;;1.35;1.25;;;;;;;2.47;75.57;98323.09;4436854;32;20191;-80
2023/12/23 05:17:27;;;;;;;0.90;0.90;;;;;;;2.47;76.00;98337.94;4437293;32;20509;-80
2023/12/23 05:19:56;;;;;;;0.90;0.90;;;;;;;2.39;76.33;98337.56;4436933;32;20187;-80
2023/12/23 05:22:25;;;;;;;1.37;1.27;;;;;;;2.42;76.02;98347.84;4436715;32;20167;-80
2023/12/23 05:25:01;;;;;;;1.00;1.00;;;;;;;2.40;75.97;98362.78;4436796;32;20140;-80
2023/12/23 05:27:30;;;;;;;1.23;1.17;;;;;;;2.52;75.56;98356.81;4422739;32;20160;-80
2023/12/23 05:30:00;;;;;;;1.85;1.20;;;;;;;2.49;75.33;98375.28;4437152;32;20501;-80
2023/12/23 05:32:30;;;;;;;1.00;1.00;;;;;;;2.51;75.44;98385.66;4436947;32;20160;-80
2023/12/23 05:35:01;;;;;;;1.20;1.17;;;;;;;2.30;76.29;98385.19;4436822;32;20141;-80
2023/12/23 05:37:30;;;;;;;1.42;1.30;;;;;;;2.53;75.44;98397.69;4436774;32;20755;-80
2023/12/23 05:39:59;;;;;;;0.90;0.90;;;;;;;2.60;74.56;98390.31;4436981;32;20144;-80
2023/12/23 05:42:28;;;;;;;1.00;1.00;;;;;;;2.74;74.34;98394.72;4436512;32;20504;-80
2023/12/23 05:44:57;;;;;;;1.55;1.10;;;;;;;2.82;73.38;98397.72;4436704;32;20156;-80
2023/12/23 05:47:29;;;;;;;1.05;1.02;;;;;;;2.79;73.70;98418.81;4437382;32;20160;-80
2023/12/23 05:49:59;;;;;;;1.37;1.25;;;;;;;2.75;73.81;98430.41;4436740;32;20160;-80
2023/12/23 05:52:28;;;;;;;1.00;1.00;;;;;;;2.70;73.68;98436.75;4436315;32;20145;-80
2023/12/23 05:54:57;;;;;;;1.73;1.37;;;;;;;2.78;73.30;98448.53;4436635;32;20132;-80
2023/12/23 05:57:26;;;;;;;0.70;0.70;;;;;;;2.76;73.12;98453.00;4436725;32;20231;-80
2023/12/23 05:59:55;;;;;;;0.75;0.75;;;;;;;2.93;72.23;98453.66;4436600;32;20187;-80
2023/12/23 06:02:24;;;;;;;1.10;1.00;;;;;;;2.84;72.12;98456.81;4436877;32;20587;-80
2023/12/23 06:04:55;;;;;;;1.58;1.08;;;;;;;2.94;72.29;98463.19;4430560;32;20156;-80
2023/12/23 06:07:24;;;;;;;1.10;1.10;;;;;;;3.08;71.77;98461.50;4436546;32;20156;-80
2023/12/23 06:09:53;;;;;;;1.42;1.33;;;;;;;2.83;72.76;98473.47;4436617;32;20163;-80
2023/12/23 06:12:23;;;;;;;1.10;1.10;;;;;;;2.45;74.08;98491.44;4438433;32;20515;-80
2023/12/23 06:14:54;;;;;;;1.60;1.50;;;;;;;2.54;73.87;98488.28;4437956;32;20140;-80
2023/12/23 06:17:23;;;;;;;0.90;0.90;;;;;;;2.52;74.68;98486.69;4437334;32;20148;-80
2023/12/23 06:19:53;;;;;;;1.05;1.00;;;;;;;2.63;74.11;98477.28;4430660;32;20171;-81
2023/12/23 06:22:23;;;;;;;1.12;1.12;;;;;;;2.67;74.74;98483.16;4436589;32;20160;-80
2023/12/23 06:24:52;;;;;;;1.02;1.02;;;;;;;2.63;74.87;98494.75;4436805;32;20463;-80
2023/12/23 06:27:21;;;;;;;0.80;0.80;;;;;;;2.49;75.12;98495.53;4436384;32;20156;-80
2023/12/23 06:29:50;;;;;;;1.23;1.15;;;;;;;2.71;74.76;98484.66;4436722;32;20144;-80
2023/12/23 06:32:20;;;;;;;0.80;0.80;;;;;;;2.54;75.46;98503.16;4448479;32;20147;-80
2023/12/23 06:34:49;;;;;;;1.05;1.05;;;;;;;2.58;75.48;98523.78;4452131;32;20179;-80
2023/12/23 06:37:18;;;;;;;1.25;1.23;;;;;;;2.44;75.70;98500.22;4452422;32;20143;-80
2023/12/23 06:39:49;;;;;;;1.30;1.20;;;;;;;2.42;76.24;98499.47;4452890;32;20143;-80
2023/12/23 06:42:18;;;;;;;1.20;1.10;;;;;;;2.55;75.54;98505.66;4454612;32;20159;-80
2023/12/23 06:44:48;;;;;;;1.20;1.10;;;;;;;2.79;75.04;98513.81;4452306;32;20176;-80
2023/12/23 06:47:17;;;;;;;1.10;1.10;;;;;;;2.62;75.11;98527.91;4451443;32;20156;-80
2023/12/23 06:49:46;;;;;;;1.20;1.10;;;;;;;2.71;75.16;98536.97;4451655;32;20457;-80
2023/12/23 06:52:15;;;;;;;1.55;1.20;;;;;;;2.70;75.13;98540.53;4452244;32;20575;-80
2023/12/23 06:54:44;;;;;;;1.87;1.17;;;;;;;2.50;75.67;98528.63;4452513;32;20726;-80
2023/12/23 06:57:15;;;;;;;2.33;1.40;;;;;;;2.57;75.68;98532.53;4452435;32;20156;-80
2023/12/23 06:59:45;;;;;;;3.15;2.22;;;;;;;2.51;75.61;98556.44;4452641;32;20140;-80
2023/12/23 07:02:15;;;;;;;1.42;1.37;;;;;;;2.79;74.89;98529.50;4452159;32;20148;-80
2023/12/23 07:04:45;;;;;;;1.17;1.17;;;;;;;2.48;76.21;98527.84;4453814;32;20156;-80
2023/12/23 07:07:15;;;;;;;1.05;1.05;;;;;;;2.28;75.99;98507.25;4453121;32;20160;-80
2023/12/23 07:09:44;;;;;;;1.27;1.20;;;;;;;2.25;76.12;98515.28;4452611;32;20151;-80
2023/12/23 07:12:21;;;;;;;2.65;1.52;;;;;;;2.52;75.27;98497.16;4452289;32;20401;-80
2023/12/23 07:14:54;;;;;;;1.50;1.40;;;;;;;2.62;74.43;98499.13;4446360;32;20443;-80
2023/12/23 07:17:23;;;;;;;1.58;1.48;;;;;;;2.63;73.81;98523.50;4453227;32;20176;-80
2023/12/23 07:20:10;;;;;;;1.95;1.35;;;;;;;2.67;73.68;98536.31;4448533;32;20167;-80
2023/12/23 07:22:45;;;;;;;1.30;1.20;;;;;;;2.78;73.00;98525.22;4452730;32;20159;-80
2023/12/23 07:25:14;;;;;;;1.40;1.27;;;;;;;3.01;72.71;98568.34;4453831;32;20187;-80
2023/12/23 07:27:44;;;;;;;2.00;1.35;;;;;;;2.77;73.30;98588.06;4452760;32;20179;-80
2023/12/23 07:30:14;;;;;;;2.03;1.37;;;;;;;2.87;73.46;98597.06;4453293;32;20428;-80
2023/12/23 07:32:45;;;;;;;2.28;1.60;;;;;;;2.77;73.66;98606.37;4453076;32;20160;-80
2023/12/23 07:35:15;;;;;;;1.73;1.62;;;;;;;2.83;73.17;98585.94;4451886;32;20186;-80
2023/12/23 07:37:49;;;;;;;4.15;1.50;;;;;;;3.10;72.43;98596.56;4452946;32;20172;-80
2023/12/23 07:40:24;;;;;;;2.20;2.00;;;;;;;3.23;72.13;98611.53;4452566;32;20167;-81
2023/12/23 07:42:58;;;;;;;2.45;1.60;;;;;;;2.79;73.66;98605.38;4452486;32;20164;-80
2023/12/23 07:45:30;;;;;;;3.65;1.90;;;;;;;3.29;71.77;98603.31;4452825;32;20172;-80
2023/12/23 07:47:59;;;;;;;4.35;2.35;;;;;;;3.07;72.20;98611.59;4438205;32;20731;-80
2023/12/23 07:50:29;;;;;;;1.77;1.60;;;;;;;2.74;73.74;98617.03;4452544;32;20179;-80
2023/12/23 07:52:58;;;;;;;2.78;1.80;;;;;;;2.99;73.06;98627.75;4452608;32;20203;-80
2023/12/23 07:55:27;;;;;;;3.00;2.28;;;;;;;2.99;72.89;98619.06;4452862;32;20151;-81
2023/12/23 07:57:59;;;;;;;1.95;1.60;;;;;;;3.12;72.39;98633.09;4452750;32;20155;-80
2023/12/23 08:00:28;;;;;;;2.30;1.83;;;;;;;3.26;72.00;98638.38;4452874;32;20175;-80
2023/12/23 08:02:58;;;;;;;1.87;1.70;;;;;;;3.33;71.53;98654.56;4438470;32;20183;-80
2023/12/23 08:05:31;;;;;;;2.55;1.90;;;;;;;3.01;72.63;98664.28;4437496;32;20167;-81
2023/12/23 08:08:01;;;;;;;2.70;1.62;;;;;;;3.15;71.98;98680.03;4437231;32;20164;-81
2023/12/23 08:10:30;;;;;;;5.90;2.92;;;;;;;3.20;71.78;98688.47;4437562;32;20168;-80
2023/12/23 08:13:00;;;;;;;3.00;2.25;;;;;;;3.33;71.60;98688.59;4436754;32;20193;-81
2023/12/23 08:15:30;;;;;;;3.65;2.95;;;;;;;4.17;77.68;98704.44;4436966;32;20164;-80
2023/12/23 08:17:59;;;;;;;4.70;3.55;;;;;;;4.98;73.80;98708.91;4437166;32;20148;-80
2023/12/23 08:20:29;;;;;;;3.42;2.50;;;;;;;5.41;69.44;98712.16;4437194;32;20195;-80
2023/12/23 08:22:58;;;;;;;4.25;2.70;;;;;;;5.27;64.84;98717.50;4436701;32;20183;-80
2023/12/23 08:25:27;;;;;;;2.47;1.52;;;;;;;5.09;64.74;98723.03;4436463;32;20176;-81
2023/12/23 08:27:57;;;;;;;5.65;2.20;;;;;;;4.76;65.84;98725.22;4436549;32;20177;-81
2023/12/23 08:30:27;;;;;;;2.03;1.50;;;;;;;4.60;66.35;98727.97;4436933;32;20175;-80
2023/12/23 08:32:57;;;;;;;1.60;1.50;;;;;;;4.77;65.93;98732.16;4449448;32;20160;-80
2023/12/23 08:35:26;;;;;;;3.42;1.90;;;;;;;4.62;66.31;98732.16;4452692;32;20163;-80
2023/12/23 08:37:56;;;;;;;2.15;1.65;;;;;;;4.67;66.10;98743.25;4446121;32;20167;-80
2023/12/23 08:40:25;;;;;;;3.47;2.60;;;;;;;4.34;66.47;98748.81;4452039;32;20155;-80
2023/12/23 08:42:54;;;;;;;1.75;1.58;;;;;;;4.22;67.79;98751.34;4452111;32;20442;-80
2023/12/23 08:45:23;;;;;;;2.17;1.87;;;;;;;4.39;66.92;98745.88;4451752;32;20731;-80
2023/12/23 08:47:57;;;;;;;2.10;1.60;;;;;;;4.49;66.50;98749.63;4454878;32;20166;-80
2023/12/23 08:50:27;;;;;;;1.90;1.60;;;;;;;4.46;66.38;98749.81;4454645;32;20172;-81
2023/12/23 08:52:56;;;;;;;2.33;1.80;;;;;;;4.57;65.62;98755.25;4454692;32;20199;-80
2023/12/23 08:55:25;;;;;;;2.20;2.03;;;;;;;4.49;65.68;98768.00;4454344;32;20170;-80
2023/12/23 08:57:56;;;;;;;2.10;1.90;;;;;;;4.30;66.27;98770.06;4454286;32;20151;-80
2023/12/23 09:00:25;;;;;;;2.70;1.80;;;;;;;4.51;65.19;98781.84;4453759;32;20160;-80
2023/12/23 09:02:55;;;;;;;3.78;1.55;;;;;;;4.33;64.28;98788.25;4454094;32;20151;-80
2023/12/23 09:05:25;;;;;;;4.18;1.80;;;;;;;3.94;65.54;98776.63;4454085;32;20167;-80
2023/12/23 09:07:58;;;;;;;5.68;1.90;;;;;;;4.21;64.84;98773.28;4453790;32;20456;-80
2023/12/23 09:10:27;;;;;;;2.47;1.73;;;;;;;4.07;63.89;98780.19;4454101;32;20532;-80
2023/12/23 09:12:57;;;;;;;3.72;1.73;;;;;;;4.19;63.79;98787.28;4453658;32;20527;-80
2023/12/23 09:15:26;;;;;;;4.55;2.80;;;;;;;4.18;63.63;98782.16;4454207;32;20175;-80
2023/12/23 09:17:56;;;;;;;6.22;1.98;;;;;;;3.94;64.06;98787.09;4453625;32;20160;-80
2023/12/23 09:20:28;;;;;;;3.12;2.85;;;;;;;4.24;63.11;98784.41;4453952;32;20169;-80
2023/12/23 09:22:58;;;;;;;4.55;1.85;;;;;;;4.33;62.30;98786.47;4454449;32;20531;-80
2023/12/23 09:25:27;;;;;;;4.43;1.80;;;;;;;4.37;62.15;98787.97;4455190;32;20168;-80
2023/12/23 09:27:56;;;;;;;4.18;1.70;;;;;;;4.14;62.12;98789.34;4455174;32;20187;-80
2023/12/23 09:30:26;;;;;;;1.92;1.70;;;;;;;4.46;61.95;98793.56;4454839;32;20171;-80
2023/12/23 09:32:56;;;;;;;5.78;1.70;;;;;;;4.55;61.61;98796.44;4454777;32;20175;-79
2023/12/23 09:35:27;;;;;;;3.03;2.10;;;;;;;3.93;62.63;98794.13;4454823;32;20271;-80
2023/12/23 09:37:57;;;;;;;6.65;1.85;;;;;;;4.16;62.96;98782.25;4454671;32;20151;-80
2023/12/23 09:40:26;;;;;;;3.28;2.10;;;;;;;4.37;62.07;98766.13;4454803;32;20167;-79
2023/12/23 09:42:55;;;;;;;45.30;22.85;;;;;;;4.54;61.78;98767.69;4448450;32;20540;-80
2023/12/23 09:45:25;;;;;;;140.77;55.95;;;;;;;4.56;61.82;98761.44;4455597;32;20148;-80
2023/12/23 09:47:57;;;;;;;72.93;32.05;;;;;;;4.57;61.83;98747.38;4453249;32;20160;-77
2023/12/23 09:50:27;;;;;;;56.17;25.77;;;;;;;4.32;63.21;98752.47;4453259;32;20164;-78
2023/12/23 09:53:00;;;;;;;15.00;9.07;;;;;;;4.38;62.45;98779.16;4454361;32;20171;-80
2023/12/23 09:55:32;;;;;;;3.90;2.78;;;;;;;4.07;63.20;98772.31;4454003;32;20164;-80
2023/12/23 09:58:01;;;;;;;9.73;2.75;;;;;;;4.26;62.50;98772.03;4454786;32;20171;-80
2023/12/23 10:00:30;;;;;;;4.85;2.80;;;;;;;3.95;63.29;98786.16;4455190;32;20167;-80
2023/12/23 10:03:00;;;;;;;3.08;2.05;;;;;;;4.02;63.32;98782.25;4440943;32;20160;-79
2023/12/23 10:05:31;;;;;;;5.95;2.20;;;;;;;4.11;63.31;98786.91;4455636;32;20192;-80
2023/12/23 10:08:01;;;;;;;3.85;2.87;;;;;;;4.04;63.48;98782.13;4441032;32;20174;-80
2023/12/23 10:10:32;;;;;;;10.82;7.60;;;;;;;4.17;63.10;98781.31;4455437;32;20435;-80
2023/12/23 10:13:01;;;;;;;8.68;4.97;;;;;;;4.01;63.31;98785.81;4454046;32;20536;-80
2023/12/23 10:15:31;;;;;;;9.45;8.02;;;;;;;4.17;62.20;98797.03;4454062;32;20143;-80
2023/12/23 10:18:03;;;;;;;6.90;5.12;;;;;;;3.86;62.96;98791.97;4454518;32;20140;-79
2023/12/23 10:20:34;;;;;;;6.05;3.75;;;;;;;4.16;63.30;98790.13;4454110;32;20180;-80
2023/12/23 10:23:04;;;;;;;6.62;3.50;;;;;;;3.94;62.74;98790.56;4453984;32;20187;-79
2023/12/23 10:25:33;;;;;;;4.80;2.70;;;;;;;4.26;62.11;98786.94;4454053;32;20156;-80
2023/12/23 10:28:04;;;;;;;9.55;3.92;;;;;;;4.43;62.04;98784.97;4455212;32;20560;-80
2023/12/23 10:30:37;;;;;;;5.45;2.45;;;;;;;4.37;61.83;98780.09;4455395;32;20167;-80
2023/12/23 10:33:08;;;;;;;3.87;2.10;;;;;;;4.34;62.35;98777.66;4455214;32;20164;-79
2023/12/23 10:35:45;;;;;;;2.95;2.28;;;;;;;4.42;61.63;98771.94;4455176;32;20171;-80
2023/12/23 10:38:17;;;;;;;4.30;2.90;;;;;;;4.89;60.89;98782.06;4454172;32;20184;-80
2023/12/23 10:40:47;;;;;;;;;;;;;;;4.78;60.79;98788.94;4454263;32;20159;-80
2023/12/23 10:43:18;;;;;;;6.87;2.45;;;;;;;4.59;61.43;98781.37;4454405;32;20048;-80
2023/12/23 10:45:51;;;;;;;2.75;2.12;;;;;;;4.80;60.05;98787.06;4454225;32;20156;-80
2023/12/23 10:48:21;;;;;;;4.25;2.83;;;;;;;4.44;61.36;98775.31;4454393;32;20153;-79
2023/12/23 10:50:52;;;;;;;5.62;2.83;;;;;;;4.52;59.59;98780.94;4454181;32;20156;-79
2023/12/23 10:53:24;;;;;;;5.10;2.10;;;;;;;4.60;59.96;98781.28;4453834;32;20175;-79
2023/12/23 10:55:54;;;;;;;4.30;2.12;;;;;;;4.75;58.61;98779.50;4442292;32;367828;-80
2023/12/23 10:58:26;;;;;;;2.22;1.55;;;;;;;4.18;58.05;98767.25;4453875;32;20184;-79
2023/12/23 11:00:58;;;;;;;1.52;1.05;;;;;;;3.94;57.42;98772.22;4454189;32;20175;-79
2023/12/23 11:03:32;;;;;;;3.37;1.70;;;;;;;3.97;58.12;98768.56;4453758;32;20182;-80
2023/12/23 11:06:07;;;;;;;7.25;1.62;;;;;;;3.95;56.60;98766.03;4454246;32;20164;-79
2023/12/23 11:08:38;;;;;;;3.10;2.47;;;;;;;4.05;56.70;98742.75;4454087;32;20128;-79
2023/12/23 11:11:07;;;;;;;2.03;1.58;;;;;;;4.15;57.55;98753.50;4454869;32;20223;-80
2023/12/23 11:13:37;;;;;;;3.33;2.25;;;;;;;3.81;58.18;98741.63;4454777;32;20160;-79
2023/12/23 11:16:10;;;;;;;17.55;8.38;;;;;;;3.96;58.45;98743.31;4454658;32;20561;-80
2023/12/23 11:18:40;;;;;;;21.27;11.77;;;;;;;3.60;60.49;98738.47;4454723;32;20163;-79
2023/12/23 11:21:17;;;;;;;2.37;1.55;;;;;;;3.53;61.21;98738.00;4454814;32;20144;-79
2023/12/23 11:23:47;;;;;;;4.10;2.28;;;;;;;3.80;61.53;98729.44;4454867;32;20172;-79
2023/12/23 11:26:41;;;;;;;2.70;2.40;;;;;;;3.69;62.36;98740.56;4452620;32;20180;-80
2023/12/23 11:29:14;;;;;;;2.22;1.83;;;;;;;3.79;62.80;98739.06;4453320;32;20163;-79
2023/12/23 11:31:44;;;;;;;2.25;1.73;;;;;;;3.74;63.87;98720.16;4453203;32;20164;-80
2023/12/23 11:34:15;;;;;;;2.92;1.77;;;;;;;3.49;65.60;98723.41;4453118;32;20544;-79
2023/12/23 11:36:47;;;;;;;3.05;2.37;;;;;;;3.54;65.91;98717.91;4453773;32;20191;-80
2023/12/23 11:39:18;;;;;;;4.65;1.83;;;;;;;3.35;67.12;98705.87;4453829;32;20152;-79
2023/12/23 11:41:48;;;;;;;5.53;2.12;;;;;;;3.31;67.93;98699.16;4454233;32;20171;-80
2023/12/23 11:44:19;;;;;;;3.67;3.00;;;;;;;2.80;69.58;98695.16;4453665;32;20172;-79
2023/12/23 11:46:48;;;;;;;3.47;3.17;;;;;;;2.95;69.92;98689.03;4453341;32;20147;-80
2023/12/23 11:49:17;;;;;;;3.25;2.80;;;;;;;3.17;69.61;98684.25;4453642;32;20155;-80
2023/12/23 11:51:51;;;;;;;3.15;2.40;;;;;;;3.15;69.54;98680.03;4453700;32;20768;-79
2023/12/23 11:54:31;;;;;;;6.72;2.72;;;;;;;3.25;69.57;98680.31;4453382;32;20163;-79
2023/12/23 11:57:00;;;;;;;8.77;3.03;;;;;;;3.17;69.60;98679.03;4453074;32;20160;-79